Terminal Aerodrome Forecast
Issued by NWS Pittsburgh, PA

Current Version | Previous Version | Graphics & Text | Print | Product List | Glossary On
Versions: 1 2 3 4 5 6 7 8 9 10 11 12 13 14 15 16 17 18 19 20 21 22 23 24 25 26 27 28 29 30 31 32
226
FTUS41 KPBZ 250359 AAA
TAFPIT
TAF AMD
KPIT 250359Z 2504/2606 19005KT P6SM BKN250
     FM250700 21008KT 6SM -RA BKN040
      TEMPO 2508/2510 3SM -TSRA BKN025CB
     FM251600 22007KT P6SM SCT035
     FM260300 25005KT P6SM VCTS BKN035CB=

USA.gov is the U.S. government's official web portal to all federal, state and local government web resources and services.